Terminal Aerodrome Forecast
Issued by NWS Wichita, KS

Home | Current Version | Previous Version | Text Only | Print | Product List | Glossary On
Versions: 1 2 3 4 5 6 7 8 9 10 11 12 13 14 15 16
000
FTUS43 KICT 061720
TAFICT
TAF
KICT 061720Z 0618/0718 15025G32KT P6SM SCT008 OVC012
     FM061900 16025G35KT P6SM SCT015 BKN025
     FM070000 18026G35KT P6SM VCTS BKN035CB
     FM070800 18020G30KT P6SM BKN010=

USA.gov is the U.S. government's official web portal to all federal, state and local government web resources and services.